Time;durP1;ratioP1;P1;durP2;ratioP2;P2;SDS_P1;SDS_P2;PMS_P1;PMS_P2;Temp;Humidity;BMP_temperature;BMP_pressure;BME280_temperature;BME280_humidity;BME280_pressure;Samples;Min_cycle;Max_cycle;Signal;HPM_P1;HPM_P2
2024/03/25 00:00:14;;;;;;;5.72;2.17;;;7.50;83.30;;;;;;5085680;28;20020;-63
2024/03/25 00:02:41;;;;;;;11.05;1.70;;;7.50;83.40;;;;;;5077842;28;20380;-63
2024/03/25 00:05:11;;;;;;;3.90;1.23;;;7.50;83.60;;;;;;5074864;28;20498;-63
2024/03/25 00:07:37;;;;;;;12.15;1.45;;;7.40;83.40;;;;;;5088394;28;20028;-63
2024/03/25 00:10:06;;;;;;;5.85;1.58;;;7.50;83.40;;;;;;5083406;28;20027;-66
2024/03/25 00:12:32;;;;;;;0.82;0.70;;;7.50;83.40;;;;;;5088566;28;20063;-66
2024/03/25 00:14:58;;;;;;;2.47;1.38;;;7.50;83.40;;;;;;5082635;28;20021;-66
2024/03/25 00:17:24;;;;;;;2.80;0.88;;;7.50;83.40;;;;;;5068157;28;20035;-66
2024/03/25 00:19:52;;;;;;;2.33;0.90;;;7.50;83.30;;;;;;5083553;28;20394;-66
2024/03/25 00:22:19;;;;;;;5.22;1.30;;;7.50;83.00;;;;;;5084298;28;20054;-66
2024/03/25 00:24:46;;;;;;;6.85;0.80;;;7.50;83.00;;;;;;5080547;28;20032;-66
2024/03/25 00:27:12;;;;;;;2.35;0.95;;;7.50;83.60;;;;;;5081122;28;20032;-66
2024/03/25 00:29:38;;;;;;;4.43;0.88;;;7.40;83.00;;;;;;5081710;28;20395;-63
2024/03/25 00:32:05;;;;;;;2.65;1.10;;;7.40;83.10;;;;;;5080094;28;20024;-63
2024/03/25 00:34:32;;;;;;;2.15;0.50;;;7.40;83.10;;;;;;5083028;28;20042;-63
2024/03/25 00:37:01;;;;;;;6.50;1.20;;;7.40;83.10;;;;;;5085646;28;20480;-63
2024/03/25 00:39:27;;;;;;;3.95;1.30;;;7.40;83.00;;;;;;5086074;28;20392;-64
2024/03/25 00:41:54;;;;;;;7.20;1.17;;;7.40;83.00;;;;;;5083976;28;20107;-63
2024/03/25 00:44:20;;;;;;;2.78;1.65;;;7.40;83.00;;;;;;5086253;28;20115;-63
2024/03/25 00:46:46;;;;;;;3.13;1.42;;;7.40;83.00;;;;;;5079486;28;20103;-66
2024/03/25 00:49:12;;;;;;;1.70;1.52;;;7.40;83.00;;;;;;5076852;28;20045;-66
2024/03/25 00:51:38;;;;;;;4.65;1.48;;;7.40;82.90;;;;;;5082148;28;20038;-66
2024/03/25 00:54:04;;;;;;;2.60;0.75;;;7.40;82.90;;;;;;5081883;28;20025;-66
2024/03/25 00:56:31;;;;;;;1.65;1.17;;;7.40;82.80;;;;;;5079973;28;20478;-66
2024/03/25 00:59:02;;;;;;;1.35;0.85;;;7.40;82.70;;;;;;5078423;28;20031;-66
2024/03/25 01:01:28;;;;;;;2.35;1.35;;;7.40;82.70;;;;;;5086231;28;20025;-63
2024/03/25 01:03:54;;;;;;;1.02;0.70;;;7.30;82.70;;;;;;5084821;28;20024;-66
2024/03/25 01:06:20;;;;;;;3.47;0.93;;;7.30;82.80;;;;;;5088341;28;20455;-66
2024/03/25 01:08:46;;;;;;;3.90;1.23;;;7.30;82.80;;;;;;5085454;28;20084;-66
2024/03/25 01:11:12;;;;;;;2.83;1.23;;;7.30;82.70;;;;;;5081241;28;20033;-66
2024/03/25 01:13:38;;;;;;;3.13;1.40;;;7.20;82.60;;;;;;5082686;28;20033;-66
2024/03/25 01:16:04;;;;;;;3.30;1.30;;;7.20;82.80;;;;;;5085784;28;20091;-66
2024/03/25 01:18:30;;;;;;;0.80;0.70;;;7.10;82.80;;;;;;5081007;28;20032;-66
2024/03/25 01:20:56;;;;;;;0.95;0.65;;;7.00;82.80;;;;;;5083667;28;20447;-66
2024/03/25 01:23:22;;;;;;;3.38;0.73;;;7.00;82.90;;;;;;5076618;28;20032;-66
2024/03/25 01:25:48;;;;;;;2.60;1.00;;;7.00;82.90;;;;;;5083048;28;20130;-66
2024/03/25 01:28:14;;;;;;;1.50;0.95;;;6.90;82.60;;;;;;5082154;28;20052;-66
2024/03/25 01:30:40;;;;;;;5.32;1.00;;;6.90;82.70;;;;;;5082695;28;20033;-66
2024/03/25 01:33:06;;;;;;;3.90;1.33;;;6.80;82.80;;;;;;5084454;28;20028;-66
2024/03/25 01:35:32;;;;;;;2.15;0.88;;;6.80;82.90;;;;;;5085004;28;20395;-64
2024/03/25 01:37:58;;;;;;;1.55;0.65;;;6.70;83.00;;;;;;5086554;28;20039;-63
2024/03/25 01:40:24;;;;;;;3.65;0.88;;;6.70;83.00;;;;;;5076125;28;20032;-66
2024/03/25 01:43:00;;;;;;;1.13;0.70;;;6.70;83.00;;;;;;5082068;28;20394;-66
2024/03/25 01:45:32;;;;;;;2.60;0.95;;;6.70;82.90;;;;;;5087054;28;20071;-66
2024/03/25 01:48:02;;;;;;;4.38;1.35;;;6.70;83.00;;;;;;5083035;28;20463;-66
2024/03/25 01:50:29;;;;;;;8.40;1.75;;;6.70;83.10;;;;;;5084586;28;20032;-66
2024/03/25 01:52:56;;;;;;;3.20;0.90;;;6.70;83.30;;;;;;5076061;28;20183;-66
2024/03/25 01:55:28;;;;;;;3.40;1.00;;;6.70;83.20;;;;;;5078604;28;20098;-66
2024/03/25 01:57:54;;;;;;;1.15;0.85;;;6.80;83.30;;;;;;5088773;28;20028;-65
2024/03/25 02:00:21;;;;;;;6.28;1.17;;;6.80;83.20;;;;;;5090659;28;20027;-66
2024/03/25 02:02:47;;;;;;;1.60;0.80;;;6.80;83.10;;;;;;5090641;28;20035;-66
2024/03/25 02:05:16;;;;;;;4.32;0.93;;;6.80;83.20;;;;;;5077720;28;20036;-64
2024/03/25 02:07:43;;;;;;;2.15;1.38;;;6.80;83.20;;;;;;5087396;28;20043;-66
2024/03/25 02:10:10;;;;;;;3.70;1.15;;;6.80;83.30;;;;;;5082263;28;20031;-66
2024/03/25 02:12:40;;;;;;;8.15;1.55;;;6.80;83.10;;;;;;5091114;28;20477;-64
2024/03/25 02:15:06;;;;;;;3.58;1.15;;;6.80;83.00;;;;;;5084288;28;20025;-64
2024/03/25 02:17:32;;;;;;;6.60;0.77;;;6.70;82.90;;;;;;5081956;28;20111;-64
2024/03/25 02:19:58;;;;;;;2.22;1.20;;;6.70;82.90;;;;;;5083679;28;20036;-64
2024/03/25 02:22:24;;;;;;;2.17;0.88;;;6.70;82.90;;;;;;5085510;28;20036;-64
2024/03/25 02:24:52;;;;;;;7.57;1.95;;;6.60;83.10;;;;;;5083913;28;20032;-64
2024/03/25 02:27:19;;;;;;;14.05;1.13;;;6.60;83.10;;;;;;5082274;28;20549;-64
2024/03/25 02:29:45;;;;;;;2.80;1.08;;;6.60;83.20;;;;;;5085476;28;20028;-64
2024/03/25 02:32:12;;;;;;;5.00;1.45;;;6.50;83.20;;;;;;5085074;28;20036;-63
2024/03/25 02:34:41;;;;;;;15.30;2.22;;;6.50;83.30;;;;;;5089733;28;20048;-63
2024/03/25 02:37:07;;;;;;;3.83;1.80;;;6.60;83.30;;;;;;5082889;28;20028;-63
2024/03/25 02:39:34;;;;;;;1.27;1.17;;;6.60;83.30;;;;;;5087760;28;20024;-64
2024/03/25 02:42:00;;;;;;;2.05;0.82;;;6.60;83.80;;;;;;5087169;28;20036;-63
2024/03/25 02:44:26;;;;;;;1.83;1.35;;;6.60;83.30;;;;;;5089637;28;20032;-63
2024/03/25 02:46:53;;;;;;;3.28;0.95;;;6.60;83.20;;;;;;5088413;28;20063;-63
2024/03/25 02:49:18;;;;;;;6.95;1.52;;;6.60;83.30;;;;;;5087311;28;20488;-63
2024/03/25 02:51:45;;;;;;;3.17;1.60;;;6.60;83.30;;;;;;5088105;28;20024;-63
2024/03/25 02:54:10;;;;;;;9.27;1.98;;;6.70;83.40;;;;;;5087269;28;20028;-66
2024/03/25 02:56:37;;;;;;;7.45;1.33;;;6.70;83.30;;;;;;5079891;28;20049;-66
2024/03/25 02:59:03;;;;;;;2.78;0.98;;;6.80;83.40;;;;;;5084078;28;20016;-66
2024/03/25 03:01:29;;;;;;;4.07;1.27;;;6.80;83.40;;;;;;5087110;28;20032;-66
2024/03/25 03:03:54;;;;;;;8.45;1.83;;;6.80;83.30;;;;;;5085637;28;20024;-66
2024/03/25 03:06:20;;;;;;;5.72;0.95;;;6.90;83.40;;;;;;5087000;28;20089;-66
2024/03/25 03:08:46;;;;;;;2.92;1.30;;;7.00;83.40;;;;;;5084861;28;20028;-65
2024/03/25 03:11:12;;;;;;;2.08;1.88;;;7.00;83.30;;;;;;5082348;28;20039;-63
2024/03/25 03:13:37;;;;;;;6.25;2.10;;;7.10;83.20;;;;;;5084811;28;20035;-63
2024/03/25 03:16:04;;;;;;;6.53;1.05;;;7.10;83.20;;;;;;5084313;28;20040;-63
2024/03/25 03:18:30;;;;;;;5.18;1.40;;;7.00;83.30;;;;;;5085224;28;20036;-64
2024/03/25 03:20:56;;;;;;;7.57;1.70;;;7.00;83.30;;;;;;5088863;28;20031;-63
2024/03/25 03:23:23;;;;;;;2.70;1.23;;;7.00;83.30;;;;;;5088196;28;20032;-63
2024/03/25 03:25:49;;;;;;;2.60;1.30;;;7.10;83.40;;;;;;5088279;28;20075;-63
2024/03/25 03:28:16;;;;;;;8.57;1.92;;;7.10;83.40;;;;;;5081173;28;20106;-63
2024/03/25 03:30:42;;;;;;;7.47;1.92;;;7.00;83.40;;;;;;5076028;28;20055;-63
2024/03/25 03:33:08;;;;;;;5.90;1.50;;;7.00;83.40;;;;;;5082337;28;20029;-65
2024/03/25 03:35:34;;;;;;;3.75;1.20;;;7.00;83.50;;;;;;5086695;28;20060;-65
2024/03/25 03:38:00;;;;;;;6.85;1.73;;;7.00;83.50;;;;;;5086384;28;20056;-65
2024/03/25 03:40:26;;;;;;;4.13;1.35;;;7.00;83.40;;;;;;5080742;28;20043;-66
2024/03/25 03:42:52;;;;;;;7.97;2.17;;;7.00;83.40;;;;;;5081409;28;20024;-66
2024/03/25 03:45:18;;;;;;;2.03;1.05;;;7.00;83.40;;;;;;5083513;28;20033;-66
2024/03/25 03:47:44;;;;;;;1.95;1.13;;;7.00;83.30;;;;;;5073591;28;20040;-64
2024/03/25 03:50:11;;;;;;;1.35;0.70;;;7.00;83.30;;;;;;5072840;28;20037;-64
2024/03/25 03:52:37;;;;;;;1.20;0.50;;;7.00;83.30;;;;;;5078300;28;20056;-64
2024/03/25 03:55:04;;;;;;;2.60;1.15;;;7.00;83.40;;;;;;5079322;28;20412;-66
2024/03/25 03:57:32;;;;;;;2.80;0.98;;;6.90;83.20;;;;;;5084813;28;20024;-66
2024/03/25 03:59:58;;;;;;;2.13;0.95;;;6.90;83.30;;;;;;5076608;28;20324;-66
2024/03/25 04:02:26;;;;;;;1.60;1.05;;;6.90;83.40;;;;;;5078661;28;20394;-65
2024/03/25 04:04:52;;;;;;;3.50;1.40;;;6.80;83.40;;;;;;5085080;28;20043;-65
2024/03/25 04:07:17;;;;;;;1.17;0.95;;;6.80;83.40;;;;;;5083133;28;20028;-66
2024/03/25 04:09:43;;;;;;;1.20;0.60;;;6.70;83.30;;;;;;5084113;28;20431;-66
2024/03/25 04:12:10;;;;;;;3.80;1.15;;;6.70;83.30;;;;;;5079958;28;20029;-65
2024/03/25 04:14:36;;;;;;;3.53;1.35;;;6.70;83.30;;;;;;5084888;28;20032;-65
2024/03/25 04:17:02;;;;;;;4.72;1.73;;;6.60;83.30;;;;;;5080534;28;20032;-66
2024/03/25 04:19:28;;;;;;;2.78;1.48;;;6.50;83.30;;;;;;5084934;28;20110;-65
2024/03/25 04:21:54;;;;;;;3.83;1.13;;;6.50;83.40;;;;;;5076239;28;20109;-66
2024/03/25 04:24:20;;;;;;;0.55;0.55;;;6.40;83.40;;;;;;5072809;28;20070;-65
2024/03/25 04:26:46;;;;;;;1.52;1.25;;;6.40;83.40;;;;;;5079853;28;20063;-65
2024/03/25 04:29:13;;;;;;;2.28;1.05;;;6.30;83.40;;;;;;5083840;28;20469;-63
2024/03/25 04:31:39;;;;;;;2.63;1.40;;;6.30;83.50;;;;;;5084216;28;20028;-63
2024/03/25 04:34:04;;;;;;;3.30;1.38;;;6.30;83.50;;;;;;5084845;28;20030;-65
2024/03/25 04:36:31;;;;;;;3.85;0.77;;;6.30;83.40;;;;;;5090928;28;20035;-65
2024/03/25 04:38:57;;;;;;;2.88;1.08;;;6.30;83.40;;;;;;5076724;28;20039;-65
2024/03/25 04:41:23;;;;;;;2.50;1.25;;;6.20;83.30;;;;;;5082690;28;20036;-64
2024/03/25 04:43:49;;;;;;;3.45;0.82;;;6.20;83.20;;;;;;5079021;28;20398;-63
2024/03/25 04:46:14;;;;;;;2.83;0.93;;;6.10;83.20;;;;;;5081833;28;20044;-64
2024/03/25 04:48:40;;;;;;;9.48;1.52;;;6.10;83.20;;;;;;5086533;28;20122;-63
2024/03/25 04:51:08;;;;;;;4.00;2.08;;;6.00;83.20;;;;;;5086769;28;20028;-64
2024/03/25 04:53:34;;;;;;;5.13;1.33;;;6.00;83.10;;;;;;5078676;28;20021;-63
2024/03/25 04:56:00;;;;;;;10.10;1.50;;;6.00;83.10;;;;;;5076296;28;20495;-63
2024/03/25 04:58:27;;;;;;;3.83;1.00;;;6.00;83.10;;;;;;5085587;28;20028;-63
2024/03/25 05:00:52;;;;;;;2.15;0.60;;;5.90;83.00;;;;;;5081586;28;20055;-63
2024/03/25 05:03:18;;;;;;;5.15;1.40;;;5.90;83.00;;;;;;5080632;28;20028;-66
2024/03/25 05:05:44;;;;;;;4.43;1.08;;;5.80;83.00;;;;;;5084818;28;20032;-66
2024/03/25 05:08:10;;;;;;;3.95;1.65;;;5.80;83.00;;;;;;5084416;28;20032;-66
2024/03/25 05:10:35;;;;;;;4.03;1.17;;;5.80;82.90;;;;;;5081110;28;20477;-65
2024/03/25 05:13:01;;;;;;;6.57;1.85;;;5.70;82.90;;;;;;5085836;28;20081;-65
2024/03/25 05:15:27;;;;;;;8.00;1.85;;;5.70;82.90;;;;;;5078080;28;20097;-65
2024/03/25 05:17:53;;;;;;;2.95;0.60;;;5.70;83.00;;;;;;5075865;28;20030;-66
2024/03/25 05:20:19;;;;;;;6.65;2.17;;;5.70;83.10;;;;;;5078208;28;20298;-66
2024/03/25 05:22:45;;;;;;;4.90;1.30;;;5.70;82.90;;;;;;5084455;28;20043;-64
2024/03/25 05:25:11;;;;;;;3.05;1.30;;;5.70;82.90;;;;;;5086729;28;20375;-64
2024/03/25 05:27:37;;;;;;;1.67;0.90;;;5.60;82.90;;;;;;5077317;28;20024;-63
2024/03/25 05:30:03;;;;;;;1.75;1.38;;;5.60;82.90;;;;;;5080993;28;20043;-64
2024/03/25 05:32:29;;;;;;;6.38;1.33;;;5.60;82.90;;;;;;5085648;28;20035;-64
2024/03/25 05:34:55;;;;;;;2.95;1.55;;;5.60;82.90;;;;;;5087509;28;20040;-65
2024/03/25 05:37:21;;;;;;;3.45;1.98;;;5.60;82.90;;;;;;5089309;28;20035;-65
2024/03/25 05:39:47;;;;;;;4.28;1.52;;;5.50;82.80;;;;;;5085694;28;20105;-63
2024/03/25 05:42:13;;;;;;;2.30;1.25;;;5.50;82.80;;;;;;5087095;28;20040;-65
2024/03/25 05:44:38;;;;;;;4.22;1.38;;;5.50;82.80;;;;;;5081844;28;20024;-65
2024/03/25 05:47:04;;;;;;;5.57;2.22;;;5.60;82.90;;;;;;5085473;28;20027;-66
2024/03/25 05:49:30;;;;;;;4.07;1.70;;;5.60;82.80;;;;;;5083689;28;20040;-65
2024/03/25 05:51:56;;;;;;;3.33;1.88;;;5.60;82.90;;;;;;5081407;28;20445;-65
2024/03/25 05:54:22;;;;;;;4.07;1.83;;;5.50;82.90;;;;;;5086599;28;20031;-65
2024/03/25 05:56:47;;;;;;;5.25;2.10;;;5.60;82.90;;;;;;5089839;28;20032;-65
2024/03/25 05:59:13;;;;;;;3.20;1.90;;;5.60;82.90;;;;;;5082295;28;20115;-65
2024/03/25 06:01:40;;;;;;;3.13;1.77;;;5.60;82.90;;;;;;5088754;28;20126;-65
2024/03/25 06:04:05;;;;;;;6.32;2.33;;;5.60;82.90;;;;;;5091176;28;20024;-65
2024/03/25 06:06:32;;;;;;;5.10;1.35;;;5.60;82.80;;;;;;5072264;28;20024;-65
2024/03/25 06:08:58;;;;;;;7.13;1.83;;;5.70;82.70;;;;;;5087311;28;20016;-65
2024/03/25 06:11:23;;;;;;;5.72;1.80;;;5.70;82.70;;;;;;5084793;28;20025;-64
2024/03/25 06:13:49;;;;;;;3.85;1.92;;;5.70;82.90;;;;;;5080630;28;20024;-65
2024/03/25 06:16:14;;;;;;;8.93;1.63;;;5.80;82.80;;;;;;5084207;28;20020;-65
2024/03/25 06:18:40;;;;;;;5.38;1.85;;;5.90;82.80;;;;;;5091299;28;20366;-63
2024/03/25 06:21:06;;;;;;;3.45;2.03;;;5.90;82.70;;;;;;5079452;28;20212;-64
2024/03/25 06:23:32;;;;;;;7.45;1.70;;;6.00;82.70;;;;;;5088462;28;20032;-65
2024/03/25 06:25:58;;;;;;;4.70;1.98;;;6.00;82.80;;;;;;5087691;28;20040;-65
2024/03/25 06:28:23;;;;;;;2.65;1.60;;;6.10;82.80;;;;;;5087325;28;20059;-65
2024/03/25 06:36:20;;;;;;;10.80;2.55;;;6.30;82.70;;;;;;5085193;28;20545;-66
2024/03/25 06:38:46;;;;;;;7.20;2.33;;;6.40;82.80;;;;;;5082173;28;20541;-65
2024/03/25 06:41:11;;;;;;;4.65;1.67;;;6.40;82.80;;;;;;5078760;28;20067;-65
2024/03/25 06:43:40;;;;;;;4.95;2.33;;;6.50;82.80;;;;;;5082391;28;20320;-65
2024/03/25 06:46:06;;;;;;;3.83;2.38;;;6.50;82.80;;;;;;5067764;28;20024;-64
2024/03/25 06:48:36;;;;;;;5.78;2.20;;;6.60;82.80;;;;;;5085705;28;20496;-63
2024/03/25 06:51:05;;;;;;;8.13;2.80;;;6.60;82.80;;;;;;5081290;28;20458;-64
2024/03/25 06:53:31;;;;;;;2.33;1.30;;;6.70;82.90;;;;;;5081265;28;20055;-64
2024/03/25 06:55:57;;;;;;;3.35;1.38;;;6.70;82.90;;;;;;5081827;28;20040;-64
2024/03/25 06:58:25;;;;;;;5.80;1.90;;;6.70;82.80;;;;;;5082318;28;20099;-64
2024/03/25 07:00:51;;;;;;;9.48;1.65;;;6.80;82.90;;;;;;5085986;28;20056;-64
2024/03/25 07:03:18;;;;;;;5.85;1.45;;;6.90;82.90;;;;;;5083504;28;20107;-66
2024/03/25 07:05:48;;;;;;;4.28;2.25;;;7.00;82.80;;;;;;5083912;28;20028;-65
2024/03/25 07:08:14;;;;;;;4.32;1.23;;;7.10;82.80;;;;;;5084993;28;20356;-65
2024/03/25 07:10:44;;;;;;;4.50;1.33;;;7.10;82.60;;;;;;5079349;28;20093;-65
2024/03/25 07:13:10;;;;;;;7.35;1.45;;;7.20;82.60;;;;;;5087701;28;20093;-65
2024/03/25 07:15:36;;;;;;;6.05;2.40;;;7.20;82.50;;;;;;5083022;28;20032;-65
2024/03/25 07:18:03;;;;;;;3.85;2.17;;;7.30;82.50;;;;;;5089526;28;20035;-65
2024/03/25 07:20:29;;;;;;;3.15;1.55;;;7.40;82.50;;;;;;5090407;28;20035;-65
2024/03/25 07:22:55;;;;;;;5.93;1.83;;;7.40;82.50;;;;;;5089803;28;20034;-65
2024/03/25 07:25:25;;;;;;;5.53;1.05;;;7.40;82.50;;;;;;5077992;28;20443;-65
2024/03/25 07:27:51;;;;;;;5.18;1.25;;;7.50;82.60;;;;;;5087519;28;20028;-65
2024/03/25 07:30:17;;;;;;;1.23;0.82;;;7.60;82.60;;;;;;5089392;28;20040;-65
2024/03/25 07:32:45;;;;;;;2.65;1.20;;;7.60;82.40;;;;;;5086328;28;20031;-64
2024/03/25 07:35:11;;;;;;;9.27;1.13;;;7.70;82.30;;;;;;5080683;28;20338;-64
2024/03/25 07:37:37;;;;;;;6.50;1.42;;;7.80;82.40;;;;;;5089109;28;20381;-64
2024/03/25 07:40:03;;;;;;;5.38;1.80;;;7.80;82.20;;;;;;5077987;28;20070;-64
2024/03/25 07:42:30;;;;;;;4.20;1.00;;;7.90;82.20;;;;;;5084532;28;20032;-64
2024/03/25 07:44:55;;;;;;;2.15;1.23;;;8.00;82.10;;;;;;5081466;28;20021;-64
2024/03/25 07:47:21;;;;;;;3.80;1.25;;;8.10;82.10;;;;;;5084574;28;20043;-64
2024/03/25 07:49:47;;;;;;;1.85;1.38;;;8.10;82.10;;;;;;5071723;28;20028;-64
2024/03/25 07:52:13;;;;;;;4.00;1.95;;;8.20;82.10;;;;;;5080146;28;20040;-63
2024/03/25 07:54:39;;;;;;;5.60;1.00;;;8.20;82.00;;;;;;5083739;28;20451;-64
2024/03/25 07:57:05;;;;;;;5.90;1.67;;;8.30;81.90;;;;;;5086253;28;20059;-64
2024/03/25 07:59:30;;;;;;;4.53;2.05;;;8.30;81.80;;;;;;5089560;28;20064;-64
2024/03/25 08:01:56;;;;;;;3.13;1.98;;;8.40;81.90;;;;;;5084381;28;20047;-65
2024/03/25 08:04:22;;;;;;;4.72;1.83;;;8.50;81.80;;;;;;5088621;28;20287;-65
2024/03/25 08:06:48;;;;;;;7.57;2.03;;;8.50;82.20;;;;;;5088037;28;20016;-65
2024/03/25 08:09:15;;;;;;;8.02;2.53;;;8.60;81.60;;;;;;5070320;28;20094;-65
2024/03/25 08:11:43;;;;;;;2.85;1.27;;;8.70;81.50;;;;;;5085563;28;20498;-64
2024/03/25 08:14:09;;;;;;;1.73;1.00;;;8.80;81.30;;;;;;5075022;28;20016;-64
2024/03/25 08:16:35;;;;;;;4.82;1.52;;;8.90;81.10;;;;;;5076498;28;20029;-63
2024/03/25 08:19:01;;;;;;;5.22;0.98;;;9.00;81.00;;;;;;5086920;28;20134;-64
2024/03/25 08:21:26;;;;;;;3.08;1.25;;;9.00;80.90;;;;;;5082806;28;20046;-63
2024/03/25 08:23:52;;;;;;;8.18;1.92;;;9.10;80.80;;;;;;5087537;28;20474;-64
2024/03/25 08:26:18;;;;;;;5.75;1.40;;;9.20;80.60;;;;;;5083162;28;20043;-64
2024/03/25 08:28:43;;;;;;;8.18;1.67;;;9.20;80.60;;;;;;5081908;28;20032;-64
2024/03/25 08:31:09;;;;;;;2.00;1.25;;;9.30;80.60;;;;;;5061255;28;20424;-64
2024/03/25 08:33:35;;;;;;;2.83;0.90;;;9.40;80.50;;;;;;5080164;28;20033;-64
2024/03/25 08:36:00;;;;;;;6.82;2.38;;;9.50;80.40;;;;;;5062054;28;20169;-64
2024/03/25 08:38:26;;;;;;;5.90;3.17;;;9.50;80.00;;;;;;5078819;28;20032;-64
2024/03/25 08:40:52;;;;;;;4.43;1.90;;;9.60;80.00;;;;;;5085981;28;20470;-64
2024/03/25 08:43:18;;;;;;;2.95;1.15;;;9.70;79.90;;;;;;5086807;28;20078;-64
2024/03/25 08:45:46;;;;;;;5.57;1.58;;;9.80;80.30;;;;;;5085967;28;20482;-67
2024/03/25 08:48:11;;;;;;;10.55;0.93;;;9.90;79.40;;;;;;5062688;28;20059;-65
2024/03/25 08:50:37;;;;;;;6.53;1.20;;;10.00;78.90;;;;;;5082228;28;20028;-68
2024/03/25 08:53:04;;;;;;;6.40;1.10;;;10.00;78.80;;;;;;5077823;28;20035;-65
2024/03/25 08:55:30;;;;;;;6.60;1.80;;;10.10;78.70;;;;;;5070851;28;20114;-67
2024/03/25 08:57:58;;;;;;;5.10;1.73;;;10.10;78.40;;;;;;5076812;28;20029;-66
2024/03/25 09:00:24;;;;;;;7.45;2.20;;;10.20;78.40;;;;;;5068106;28;20033;-66
2024/03/25 09:02:50;;;;;;;2.20;0.65;;;10.30;78.20;;;;;;5064882;28;20394;-66
2024/03/25 09:05:18;;;;;;;5.68;1.08;;;10.40;77.30;;;;;;5051725;28;20032;-64
2024/03/25 09:07:44;;;;;;;4.68;1.23;;;10.40;77.00;;;;;;5076964;28;20035;-65
2024/03/25 09:12:55;;;;;;;4.68;1.13;;;10.60;76.70;;;;;;5077886;28;20098;-64
2024/03/25 09:15:21;;;;;;;2.70;0.88;;;10.70;76.80;;;;;;5087878;28;20032;-66
2024/03/25 09:17:46;;;;;;;2.20;1.52;;;10.80;76.60;;;;;;5090835;28;20028;-66
2024/03/25 09:20:18;;;;;;;1.40;0.70;;;10.90;76.70;;;;;;5089066;28;20344;-66
2024/03/25 09:22:44;;;;;;;15.43;1.43;;;10.90;76.20;;;;;;5085575;28;20486;-65
2024/03/25 09:25:09;;;;;;;4.05;0.93;;;10.90;75.20;;;;;;5090393;28;20047;-66
2024/03/25 09:27:36;;;;;;;2.40;1.10;;;10.90;75.10;;;;;;5085330;28;20028;-65
2024/03/25 09:30:03;;;;;;;8.27;2.15;;;10.90;75.20;;;;;;5078398;28;20908;-66
2024/03/25 09:32:30;;;;;;;4.40;0.98;;;10.90;75.00;;;;;;5076278;28;20028;-64
2024/03/25 09:34:57;;;;;;;1.27;0.90;;;10.90;74.90;;;;;;5075151;28;20040;-63
2024/03/25 09:37:22;;;;;;;2.38;1.00;;;11.10;74.60;;;;;;5083916;28;20039;-62
2024/03/25 09:39:48;;;;;;;2.33;0.95;;;11.30;74.40;;;;;;5059058;28;20032;-66
2024/03/25 09:42:27;;;;;;;2.75;0.85;;;11.50;73.90;;;;;;5072021;28;20036;-66
2024/03/25 09:44:54;;;;;;;5.55;1.77;;;11.60;73.30;;;;;;5078593;28;20032;-65
2024/03/25 09:47:23;;;;;;;5.45;0.90;;;11.60;73.30;;;;;;5076533;28;20415;-65
2024/03/25 09:49:50;;;;;;;4.03;0.75;;;11.80;72.90;;;;;;5078607;28;20059;-65
2024/03/25 09:52:15;;;;;;;2.45;0.85;;;11.90;73.10;;;;;;5074535;28;20031;-65
2024/03/25 09:54:42;;;;;;;1.88;1.27;;;12.20;72.60;;;;;;5074234;28;20040;-65
2024/03/25 09:57:08;;;;;;;2.42;1.45;;;12.20;70.10;;;;;;5076918;28;20056;-66
2024/03/25 09:59:34;;;;;;;5.28;0.95;;;12.30;70.00;;;;;;5077633;28;20043;-65
2024/03/25 10:02:02;;;;;;;1.38;0.93;;;12.40;69.60;;;;;;5080976;28;20032;-65
2024/03/25 10:04:27;;;;;;;2.53;0.80;;;12.40;70.10;;;;;;5074013;28;20024;-66
2024/03/25 10:06:53;;;;;;;4.57;1.25;;;12.30;68.80;;;;;;5080216;28;20031;-67
2024/03/25 10:09:22;;;;;;;5.80;1.00;;;12.20;69.10;;;;;;5071362;28;20073;-66
2024/03/25 10:11:49;;;;;;;3.22;1.20;;;12.10;68.80;;;;;;5081432;28;20444;-65
2024/03/25 10:14:21;;;;;;;3.17;1.48;;;12.10;68.70;;;;;;5078526;28;20440;-65
2024/03/25 10:16:49;;;;;;;5.20;1.75;;;12.10;68.90;;;;;;5080695;28;20466;-65
2024/03/25 10:19:14;;;;;;;5.55;1.40;;;12.20;68.10;;;;;;5075152;28;20079;-65
2024/03/25 10:21:40;;;;;;;1.50;0.63;;;12.10;66.90;;;;;;5080762;28;20361;-66
2024/03/25 10:24:06;;;;;;;8.15;0.77;;;12.10;67.60;;;;;;5074580;28;20029;-66
2024/03/25 10:26:32;;;;;;;0.65;0.40;;;12.10;67.80;;;;;;5083696;28;20051;-65
2024/03/25 10:29:03;;;;;;;4.07;0.60;;;12.20;67.70;;;;;;5073701;28;20040;-65
2024/03/25 10:31:29;;;;;;;3.63;1.17;;;12.10;67.20;;;;;;5065292;28;20037;-65
2024/03/25 10:33:54;;;;;;;4.28;1.27;;;12.20;67.00;;;;;;5078199;28;20282;-65
2024/03/25 10:36:22;;;;;;;4.97;1.67;;;12.20;67.30;;;;;;5071022;28;20032;-65
2024/03/25 10:38:49;;;;;;;1.38;0.50;;;12.30;67.40;;;;;;5085247;28;20111;-65
2024/03/25 10:41:18;;;;;;;0.95;0.65;;;12.30;67.40;;;;;;5083167;28;20527;-65
2024/03/25 10:43:47;;;;;;;4.35;0.57;;;12.40;67.00;;;;;;5075843;28;20474;-65
2024/03/25 10:46:22;;;;;;;6.22;1.25;;;12.50;66.50;;;;;;5070010;28;20505;-65
2024/03/25 10:49:14;;;;;;;3.97;1.95;;;12.50;66.30;;;;;;5075505;28;20267;-65
2024/03/25 10:51:41;;;;;;;0.70;0.52;;;12.50;66.30;;;;;;5060501;28;20182;-65
2024/03/25 10:54:08;;;;;;;2.80;0.77;;;12.50;66.50;;;;;;5072896;28;20024;-65
2024/03/25 10:56:34;;;;;;;5.78;0.75;;;12.70;66.40;;;;;;5077208;28;20415;-65
2024/03/25 10:59:01;;;;;;;1.00;0.60;;;13.00;66.40;;;;;;5071572;28;20107;-65
2024/03/25 11:01:29;;;;;;;3.33;1.20;;;13.20;65.90;;;;;;5079636;28;20041;-65
2024/03/25 11:03:55;;;;;;;2.78;1.27;;;13.30;65.10;;;;;;5068744;28;20055;-65
2024/03/25 11:06:21;;;;;;;1.38;0.88;;;13.20;65.00;;;;;;5082916;28;20112;-65
2024/03/25 11:08:57;;;;;;;3.65;0.57;;;13.20;64.80;;;;;;5084051;28;20542;-65
2024/03/25 11:11:23;;;;;;;1.05;0.47;;;13.20;64.80;;;;;;5066777;28;20032;-65
2024/03/25 11:13:48;;;;;;;1.80;1.23;;;13.30;64.10;;;;;;5065993;28;20032;-65
2024/03/25 11:16:28;;;;;;;0.90;0.50;;;13.50;64.30;;;;;;5062948;28;20037;-66
2024/03/25 11:18:54;;;;;;;0.77;0.70;;;13.70;64.30;;;;;;5077317;28;20032;-66
2024/03/25 11:21:25;;;;;;;2.05;0.60;;;13.90;64.10;;;;;;5072924;28;20447;-66
2024/03/25 11:23:51;;;;;;;2.97;1.55;;;14.10;64.10;;;;;;5080333;28;20061;-66
2024/03/25 11:26:25;;;;;;;4.20;1.10;;;14.30;62.10;;;;;;5075590;28;20044;-66
2024/03/25 11:28:53;;;;;;;6.50;1.35;;;14.10;61.30;;;;;;5086941;28;20028;-66
2024/03/25 11:31:20;;;;;;;6.00;1.33;;;14.00;62.00;;;;;;5081398;28;20020;-66
2024/03/25 11:33:47;;;;;;;0.98;0.70;;;13.90;62.40;;;;;;5083583;28;20035;-66
2024/03/25 11:36:12;;;;;;;1.02;0.63;;;13.90;62.90;;;;;;5086158;28;20031;-66
2024/03/25 11:38:41;;;;;;;3.97;1.15;;;14.00;62.50;;;;;;5085559;28;20024;-66
2024/03/25 11:41:07;;;;;;;2.22;0.50;;;14.00;62.40;;;;;;5082619;28;20032;-66
2024/03/25 11:43:33;;;;;;;1.35;0.80;;;14.00;62.50;;;;;;5081804;28;20040;-66
2024/03/25 11:46:00;;;;;;;3.00;0.70;;;13.80;62.10;;;;;;5083329;28;20040;-66
2024/03/25 11:48:26;;;;;;;0.85;0.70;;;13.70;62.70;;;;;;5082450;28;20032;-66
2024/03/25 11:50:51;;;;;;;1.52;0.50;;;13.60;62.80;;;;;;5079841;28;20428;-66
2024/03/25 11:53:17;;;;;;;2.47;0.70;;;13.60;63.10;;;;;;5081057;28;20021;-66
2024/03/25 11:55:47;;;;;;;1.33;0.70;;;13.60;63.20;;;;;;5078700;28;20060;-66
2024/03/25 11:58:14;;;;;;;3.15;1.35;;;13.70;63.40;;;;;;5080772;28;20034;-65
2024/03/25 12:00:50;;;;;;;3.45;1.10;;;13.90;63.40;;;;;;5075534;28;20027;-65
2024/03/25 12:03:18;;;;;;;6.43;1.20;;;14.30;62.50;;;;;;5082496;28;20063;-65
2024/03/25 12:05:44;;;;;;;2.92;0.77;;;14.50;62.30;;;;;;5071948;28;20029;-65
2024/03/25 12:08:12;;;;;;;2.30;0.88;;;14.90;60.90;;;;;;5072294;28;20023;-65
2024/03/25 12:13:27;;;;;;;2.08;0.77;;;15.40;60.40;;;;;;5083922;28;20124;-65
2024/03/25 12:15:53;;;;;;;0.98;0.77;;;15.80;59.50;;;;;;5082873;28;20032;-65
2024/03/25 12:18:20;;;;;;;6.05;0.95;;;16.00;59.10;;;;;;5080067;28;20028;-65
2024/03/25 12:20:45;;;;;;;1.73;0.73;;;16.30;58.80;;;;;;5082353;28;20040;-65
2024/03/25 12:23:11;;;;;;;3.38;1.05;;;16.40;57.20;;;;;;5077995;28;20043;-65
2024/03/25 12:25:37;;;;;;;1.92;1.15;;;16.40;56.30;;;;;;5074550;28;20044;-65
2024/03/25 12:28:09;;;;;;;1.17;0.63;;;16.30;56.50;;;;;;5087542;28;20032;-65
2024/03/25 12:30:52;;;;;;;0.40;0.40;;;16.40;56.70;;;;;;5082342;28;20043;-65
2024/03/25 12:33:18;;;;;;;5.55;1.58;;;16.60;56.00;;;;;;5075521;28;20036;-65
2024/03/25 12:35:48;;;;;;;3.10;1.05;;;16.70;55.30;;;;;;5040896;28;20025;-65
2024/03/25 12:38:25;;;;;;;4.30;1.05;;;16.80;54.80;;;;;;5070037;28;20029;-65
2024/03/25 12:40:51;;;;;;;1.02;0.70;;;16.80;55.20;;;;;;5071154;28;20024;-65
2024/03/25 12:43:17;;;;;;;3.35;0.82;;;17.10;55.30;;;;;;5069358;28;20036;-66
2024/03/25 12:45:42;;;;;;;0.90;0.85;;;17.20;54.30;;;;;;5077969;28;20174;-65
2024/03/25 12:48:09;;;;;;;1.10;0.88;;;17.10;53.40;;;;;;5080344;28;20488;-65
2024/03/25 12:50:35;;;;;;;4.28;1.17;;;17.00;53.80;;;;;;5082408;28;20028;-65
2024/03/25 12:53:02;;;;;;;3.50;1.55;;;16.80;53.80;;;;;;5079270;28;20503;-64
2024/03/25 12:55:31;;;;;;;1.55;0.73;;;16.80;54.30;;;;;;5081809;28;20073;-64
2024/03/25 12:57:56;;;;;;;12.98;1.58;;;16.70;54.20;;;;;;5088461;28;20032;-65
2024/03/25 13:00:22;;;;;;;0.73;0.70;;;16.90;54.40;;;;;;5086633;28;20051;-64